Cox Field
KPRX : now visible

Airfield :











YOU CAN JOIN US ON...

 
LOGIN :

Register | Disclaimer

   EN    FR    IT 

 









Legend :    VFR   Marginal VFR   IFR   Intensive IFR   Very Intensive IFR
Visi :
Ceiling :
>= 8 km
>= 3000ft
5 to 8 km
1000 to 3000 ft
1500m to 5 km
500 to 1000 ft
800 to 1500m
200 to 500 ft
< 800m
< 200 ft
Symbols :   Thunderstorms  Fog  Heavy snow  Heavy precipitations  Wind > 20 kt







- Airport Elevation : 547 ft


KPRX - Cox Field

CURRENT METAR :
  • 252356Z AUTO 31007KT 10SM CLR 23/15 A2989 RMK AO2 SLP132 T02330150 10244 20206 53013 $

EXPIRED METARs :
  • 252256Z AUTO 34009KT 10SM FEW049 24/14 A2987 RMK AO2 SLP125 T02390144 $
  • 252156Z AUTO 34011KT 10SM SCT041 24/15 A2985 RMK AO2 SLP118 T02390150 $

TAF N/A
KZFW FIR / North America



MET'MAP, your aeronautical weather chart ! - Copyright ORBIFLY December 2007 - Disclaimer

ORBIFLY MET'MAP TEAM :

Programming & Development : Alexandra Zaïnal
Concept & Development : Baudouin d'Aumeries
Co-Development & Prog : Marc-Olivier Méhu
Technical & hardware support : Manuel Goepfert

Contact : metmap@orbifly.com




SOURCES & CREDITS :

   NOAA       Earth
Advisory